sensor_id;sensor_type;location;lat;lon;timestamp;P1;durP1;ratioP1;P2;durP2;ratioP2
23590;SDS011;11973;52.098;7.582;2023-12-20T00:01:24;6.00;;;3.28;;
23590;SDS011;11973;52.098;7.582;2023-12-20T00:03:49;6.47;;;2.80;;
23590;SDS011;11973;52.098;7.582;2023-12-20T00:06:15;3.33;;;2.55;;
23590;SDS011;11973;52.098;7.582;2023-12-20T00:08:41;3.55;;;2.78;;
23590;SDS011;11973;52.098;7.582;2023-12-20T00:11:07;8.30;;;6.28;;
23590;SDS011;11973;52.098;7.582;2023-12-20T00:13:32;3.88;;;3.53;;
23590;SDS011;11973;52.098;7.582;2023-12-20T00:15:58;14.75;;;9.25;;
23590;SDS011;11973;52.098;7.582;2023-12-20T00:18:24;4.95;;;4.43;;
23590;SDS011;11973;52.098;7.582;2023-12-20T00:20:50;8.40;;;4.97;;
23590;SDS011;11973;52.098;7.582;2023-12-20T00:23:16;5.45;;;5.00;;
23590;SDS011;11973;52.098;7.582;2023-12-20T00:25:41;5.57;;;5.10;;
23590;SDS011;11973;52.098;7.582;2023-12-20T00:28:07;6.10;;;4.88;;
23590;SDS011;11973;52.098;7.582;2023-12-20T05:17:48;13.88;;;4.47;;
23590;SDS011;11973;52.098;7.582;2023-12-20T05:20:14;18.10;;;5.10;;
23590;SDS011;11973;52.098;7.582;2023-12-20T05:22:40;14.95;;;5.05;;
23590;SDS011;11973;52.098;7.582;2023-12-20T05:25:06;14.15;;;5.32;;
23590;SDS011;11973;52.098;7.582;2023-12-20T05:27:32;13.93;;;5.40;;
23590;SDS011;11973;52.098;7.582;2023-12-20T05:29:58;19.40;;;5.60;;
23590;SDS011;11973;52.098;7.582;2023-12-20T05:32:24;17.75;;;5.13;;
23590;SDS011;11973;52.098;7.582;2023-12-20T05:34:50;18.17;;;5.18;;
23590;SDS011;11973;52.098;7.582;2023-12-20T05:37:16;7.63;;;4.18;;
23590;SDS011;11973;52.098;7.582;2023-12-20T05:39:41;7.72;;;4.05;;
23590;SDS011;11973;52.098;7.582;2023-12-20T05:42:07;10.68;;;4.05;;
23590;SDS011;11973;52.098;7.582;2023-12-20T05:44:33;14.85;;;4.80;;
23590;SDS011;11973;52.098;7.582;2023-12-20T05:46:58;10.25;;;4.65;;
23590;SDS011;11973;52.098;7.582;2023-12-20T05:49:24;14.63;;;4.82;;
23590;SDS011;11973;52.098;7.582;2023-12-20T05:51:50;14.43;;;4.90;;
23590;SDS011;11973;52.098;7.582;2023-12-20T05:54:16;13.93;;;4.53;;
23590;SDS011;11973;52.098;7.582;2023-12-20T05:56:42;10.38;;;4.35;;
23590;SDS011;11973;52.098;7.582;2023-12-20T05:59:07;14.57;;;5.20;;
23590;SDS011;11973;52.098;7.582;2023-12-20T06:01:33;19.17;;;4.95;;
23590;SDS011;11973;52.098;7.582;2023-12-20T06:03:59;11.88;;;4.72;;
23590;SDS011;11973;52.098;7.582;2023-12-20T06:06:25;20.92;;;4.93;;
23590;SDS011;11973;52.098;7.582;2023-12-20T06:08:50;18.15;;;4.82;;
23590;SDS011;11973;52.098;7.582;2023-12-20T06:11:16;15.20;;;4.47;;
23590;SDS011;11973;52.098;7.582;2023-12-20T06:13:42;15.68;;;4.70;;
23590;SDS011;11973;52.098;7.582;2023-12-20T06:16:07;13.10;;;4.82;;
23590;SDS011;11973;52.098;7.582;2023-12-20T06:18:33;13.50;;;4.00;;
23590;SDS011;11973;52.098;7.582;2023-12-20T06:20:59;17.08;;;4.65;;
23590;SDS011;11973;52.098;7.582;2023-12-20T06:23:25;13.90;;;4.03;;
23590;SDS011;11973;52.098;7.582;2023-12-20T06:25:52;14.43;;;4.25;;
23590;SDS011;11973;52.098;7.582;2023-12-20T06:28:18;13.68;;;4.22;;
23590;SDS011;11973;52.098;7.582;2023-12-20T06:30:43;12.38;;;4.10;;
23590;SDS011;11973;52.098;7.582;2023-12-20T06:33:10;13.70;;;3.75;;
23590;SDS011;11973;52.098;7.582;2023-12-20T06:35:36;15.70;;;3.75;;
23590;SDS011;11973;52.098;7.582;2023-12-20T06:38:02;12.00;;;3.97;;
23590;SDS011;11973;52.098;7.582;2023-12-20T06:40:28;10.65;;;3.50;;
23590;SDS011;11973;52.098;7.582;2023-12-20T06:42:54;16.42;;;4.20;;
23590;SDS011;11973;52.098;7.582;2023-12-20T06:45:19;12.25;;;3.25;;
23590;SDS011;11973;52.098;7.582;2023-12-20T06:47:45;15.85;;;3.70;;
23590;SDS011;11973;52.098;7.582;2023-12-20T06:50:11;14.77;;;4.00;;
23590;SDS011;11973;52.098;7.582;2023-12-20T06:52:37;14.13;;;3.65;;
23590;SDS011;11973;52.098;7.582;2023-12-20T06:55:02;15.55;;;4.18;;
23590;SDS011;11973;52.098;7.582;2023-12-20T06:57:29;13.23;;;3.83;;
23590;SDS011;11973;52.098;7.582;2023-12-20T06:59:55;8.43;;;3.10;;
23590;SDS011;11973;52.098;7.582;2023-12-20T07:02:21;13.02;;;3.50;;
23590;SDS011;11973;52.098;7.582;2023-12-20T07:04:47;10.20;;;3.05;;
23590;SDS011;11973;52.098;7.582;2023-12-20T07:07:13;11.45;;;2.58;;
23590;SDS011;11973;52.098;7.582;2023-12-20T07:09:39;13.52;;;3.42;;
23590;SDS011;11973;52.098;7.582;2023-12-20T07:12:07;11.48;;;3.17;;
23590;SDS011;11973;52.098;7.582;2023-12-20T07:14:34;10.43;;;3.05;;
23590;SDS011;11973;52.098;7.582;2023-12-20T07:17:00;14.45;;;3.65;;
23590;SDS011;11973;52.098;7.582;2023-12-20T07:19:25;13.98;;;3.42;;
23590;SDS011;11973;52.098;7.582;2023-12-20T07:21:51;16.30;;;3.60;;
23590;SDS011;11973;52.098;7.582;2023-12-20T07:24:18;9.25;;;2.72;;
23590;SDS011;11973;52.098;7.582;2023-12-20T07:26:44;11.45;;;3.22;;
23590;SDS011;11973;52.098;7.582;2023-12-20T07:29:09;13.48;;;3.83;;
23590;SDS011;11973;52.098;7.582;2023-12-20T07:31:35;12.00;;;3.20;;
23590;SDS011;11973;52.098;7.582;2023-12-20T07:34:01;15.55;;;3.20;;
23590;SDS011;11973;52.098;7.582;2023-12-20T07:36:26;7.78;;;3.63;;
23590;SDS011;11973;52.098;7.582;2023-12-20T07:38:52;9.20;;;3.47;;
23590;SDS011;11973;52.098;7.582;2023-12-20T07:41:18;11.85;;;3.05;;
23590;SDS011;11973;52.098;7.582;2023-12-20T07:43:46;10.70;;;3.72;;
23590;SDS011;11973;52.098;7.582;2023-12-20T07:46:12;13.98;;;3.90;;
23590;SDS011;11973;52.098;7.582;2023-12-20T07:48:38;11.95;;;3.47;;
23590;SDS011;11973;52.098;7.582;2023-12-20T07:51:04;8.70;;;3.40;;
23590;SDS011;11973;52.098;7.582;2023-12-20T07:53:32;8.15;;;3.33;;
23590;SDS011;11973;52.098;7.582;2023-12-20T07:55:58;16.67;;;3.50;;
23590;SDS011;11973;52.098;7.582;2023-12-20T07:58:24;16.88;;;4.22;;
23590;SDS011;11973;52.098;7.582;2023-12-20T08:00:49;14.68;;;3.67;;
23590;SDS011;11973;52.098;7.582;2023-12-20T08:03:15;11.32;;;4.00;;
23590;SDS011;11973;52.098;7.582;2023-12-20T08:05:41;11.80;;;3.70;;
23590;SDS011;11973;52.098;7.582;2023-12-20T08:08:07;10.45;;;3.47;;
23590;SDS011;11973;52.098;7.582;2023-12-20T08:10:33;12.77;;;3.45;;
23590;SDS011;11973;52.098;7.582;2023-12-20T08:12:58;11.00;;;3.78;;
23590;SDS011;11973;52.098;7.582;2023-12-20T08:15:24;12.05;;;3.50;;
23590;SDS011;11973;52.098;7.582;2023-12-20T08:17:50;14.95;;;3.95;;
23590;SDS011;11973;52.098;7.582;2023-12-20T08:20:16;14.32;;;4.10;;
23590;SDS011;11973;52.098;7.582;2023-12-20T08:22:42;10.75;;;4.07;;
23590;SDS011;11973;52.098;7.582;2023-12-20T08:25:08;14.07;;;4.60;;
23590;SDS011;11973;52.098;7.582;2023-12-20T08:27:34;13.55;;;4.07;;
23590;SDS011;11973;52.098;7.582;2023-12-20T08:30:04;20.17;;;4.57;;
23590;SDS011;11973;52.098;7.582;2023-12-20T08:32:31;14.80;;;4.05;;
23590;SDS011;11973;52.098;7.582;2023-12-20T08:34:57;12.75;;;4.20;;
23590;SDS011;11973;52.098;7.582;2023-12-20T08:37:23;12.93;;;4.50;;
23590;SDS011;11973;52.098;7.582;2023-12-20T08:39:49;11.80;;;4.10;;
23590;SDS011;11973;52.098;7.582;2023-12-20T08:42:15;17.98;;;5.20;;
23590;SDS011;11973;52.098;7.582;2023-12-20T08:44:40;15.52;;;4.80;;
23590;SDS011;11973;52.098;7.582;2023-12-20T08:47:06;18.33;;;4.63;;
23590;SDS011;11973;52.098;7.582;2023-12-20T08:49:32;20.70;;;5.07;;
23590;SDS011;11973;52.098;7.582;2023-12-20T08:51:58;16.00;;;5.30;;
23590;SDS011;11973;52.098;7.582;2023-12-20T08:54:24;11.85;;;4.43;;
23590;SDS011;11973;52.098;7.582;2023-12-20T08:56:50;11.93;;;4.80;;
23590;SDS011;11973;52.098;7.582;2023-12-20T08:59:15;18.80;;;5.28;;
23590;SDS011;11973;52.098;7.582;2023-12-20T09:01:41;19.20;;;5.40;;
23590;SDS011;11973;52.098;7.582;2023-12-20T09:04:07;16.58;;;4.78;;
23590;SDS011;11973;52.098;7.582;2023-12-20T09:06:33;17.95;;;5.57;;
23590;SDS011;11973;52.098;7.582;2023-12-20T09:09:01;17.10;;;5.20;;
23590;SDS011;11973;52.098;7.582;2023-12-20T09:11:27;16.42;;;5.40;;
23590;SDS011;11973;52.098;7.582;2023-12-20T09:13:53;12.38;;;5.00;;
23590;SDS011;11973;52.098;7.582;2023-12-20T09:16:19;16.88;;;4.35;;
23590;SDS011;11973;52.098;7.582;2023-12-20T09:18:45;12.63;;;4.93;;
23590;SDS011;11973;52.098;7.582;2023-12-20T09:21:10;12.38;;;4.97;;
23590;SDS011;11973;52.098;7.582;2023-12-20T09:23:37;13.68;;;4.05;;
23590;SDS011;11973;52.098;7.582;2023-12-20T09:26:03;19.50;;;5.20;;
23590;SDS011;11973;52.098;7.582;2023-12-20T09:28:29;16.92;;;4.78;;
23590;SDS011;11973;52.098;7.582;2023-12-20T09:30:55;13.23;;;4.97;;
23590;SDS011;11973;52.098;7.582;2023-12-20T09:33:22;16.27;;;5.40;;
23590;SDS011;11973;52.098;7.582;2023-12-20T09:35:50;15.05;;;4.72;;
23590;SDS011;11973;52.098;7.582;2023-12-20T09:38:15;15.65;;;4.60;;
23590;SDS011;11973;52.098;7.582;2023-12-20T09:40:42;17.05;;;4.80;;
23590;SDS011;11973;52.098;7.582;2023-12-20T09:43:10;13.43;;;5.03;;
23590;SDS011;11973;52.098;7.582;2023-12-20T09:45:38;11.18;;;4.55;;
23590;SDS011;11973;52.098;7.582;2023-12-20T09:48:06;15.05;;;4.70;;
23590;SDS011;11973;52.098;7.582;2023-12-20T09:50:35;12.80;;;4.70;;
23590;SDS011;11973;52.098;7.582;2023-12-20T09:53:02;18.50;;;5.15;;
23590;SDS011;11973;52.098;7.582;2023-12-20T09:55:30;13.20;;;4.40;;
23590;SDS011;11973;52.098;7.582;2023-12-20T09:57:57;18.85;;;5.80;;
23590;SDS011;11973;52.098;7.582;2023-12-20T10:00:23;14.23;;;4.57;;
23590;SDS011;11973;52.098;7.582;2023-12-20T10:05:30;13.68;;;4.60;;
23590;SDS011;11973;52.098;7.582;2023-12-20T10:07:57;12.23;;;4.03;;
23590;SDS011;11973;52.098;7.582;2023-12-20T10:10:24;11.95;;;4.25;;
23590;SDS011;11973;52.098;7.582;2023-12-20T10:13:03;10.88;;;3.50;;
23590;SDS011;11973;52.098;7.582;2023-12-20T10:15:34;14.07;;;4.05;;
23590;SDS011;11973;52.098;7.582;2023-12-20T10:18:00;7.05;;;3.97;;
23590;SDS011;11973;52.098;7.582;2023-12-20T10:20:29;12.77;;;4.07;;
23590;SDS011;11973;52.098;7.582;2023-12-20T10:22:56;12.75;;;3.97;;
23590;SDS011;11973;52.098;7.582;2023-12-20T10:25:23;8.80;;;3.88;;
23590;SDS011;11973;52.098;7.582;2023-12-20T10:27:49;8.15;;;3.22;;
23590;SDS011;11973;52.098;7.582;2023-12-20T10:30:33;8.10;;;3.50;;
23590;SDS011;11973;52.098;7.582;2023-12-20T10:32:59;6.47;;;2.88;;
23590;SDS011;11973;52.098;7.582;2023-12-20T10:35:24;6.10;;;3.10;;
23590;SDS011;11973;52.098;7.582;2023-12-20T10:37:52;9.95;;;3.40;;
23590;SDS011;11973;52.098;7.582;2023-12-20T10:40:21;6.22;;;3.40;;
23590;SDS011;11973;52.098;7.582;2023-12-20T10:42:48;6.15;;;2.95;;
23590;SDS011;11973;52.098;7.582;2023-12-20T10:45:15;4.13;;;1.90;;
23590;SDS011;11973;52.098;7.582;2023-12-20T10:47:43;4.68;;;2.33;;
23590;SDS011;11973;52.098;7.582;2023-12-20T10:50:11;7.97;;;2.60;;
23590;SDS011;11973;52.098;7.582;2023-12-20T10:52:37;3.92;;;2.50;;
23590;SDS011;11973;52.098;7.582;2023-12-20T10:55:05;10.65;;;2.95;;
23590;SDS011;11973;52.098;7.582;2023-12-20T10:57:32;6.82;;;3.30;;
23590;SDS011;11973;52.098;7.582;2023-12-20T11:00:00;6.57;;;2.40;;
23590;SDS011;11973;52.098;7.582;2023-12-20T11:02:31;6.63;;;2.40;;
23590;SDS011;11973;52.098;7.582;2023-12-20T11:07:55;6.95;;;2.60;;
23590;SDS011;11973;52.098;7.582;2023-12-20T11:10:43;6.38;;;2.78;;
23590;SDS011;11973;52.098;7.582;2023-12-20T11:13:32;6.88;;;2.65;;
23590;SDS011;11973;52.098;7.582;2023-12-20T11:16:05;5.05;;;2.50;;
23590;SDS011;11973;52.098;7.582;2023-12-20T11:18:31;4.80;;;2.70;;
23590;SDS011;11973;52.098;7.582;2023-12-20T11:21:00;5.47;;;2.17;;
23590;SDS011;11973;52.098;7.582;2023-12-20T11:23:30;4.00;;;2.63;;
23590;SDS011;11973;52.098;7.582;2023-12-20T11:25:59;6.43;;;2.53;;
23590;SDS011;11973;52.098;7.582;2023-12-20T11:28:26;2.50;;;2.13;;
23590;SDS011;11973;52.098;7.582;2023-12-20T11:30:53;6.93;;;2.17;;
23590;SDS011;11973;52.098;7.582;2023-12-20T11:33:24;9.52;;;2.90;;
23590;SDS011;11973;52.098;7.582;2023-12-20T11:36:18;4.93;;;2.85;;
23590;SDS011;11973;52.098;7.582;2023-12-20T11:38:53;6.78;;;2.67;;
23590;SDS011;11973;52.098;7.582;2023-12-20T11:41:22;7.72;;;2.70;;
23590;SDS011;11973;52.098;7.582;2023-12-20T11:43:49;7.78;;;3.22;;
23590;SDS011;11973;52.098;7.582;2023-12-20T11:46:18;7.45;;;2.88;;
23590;SDS011;11973;52.098;7.582;2023-12-20T11:48:44;4.90;;;2.92;;
23590;SDS011;11973;52.098;7.582;2023-12-20T11:51:13;6.65;;;2.67;;
23590;SDS011;11973;52.098;7.582;2023-12-20T11:53:42;12.93;;;2.95;;
23590;SDS011;11973;52.098;7.582;2023-12-20T11:56:08;7.72;;;2.85;;
23590;SDS011;11973;52.098;7.582;2023-12-20T11:58:34;8.07;;;2.88;;
23590;SDS011;11973;52.098;7.582;2023-12-20T12:01:00;11.52;;;3.13;;
23590;SDS011;11973;52.098;7.582;2023-12-20T12:03:32;11.75;;;3.20;;
23590;SDS011;11973;52.098;7.582;2023-12-20T12:05:58;11.98;;;3.50;;
23590;SDS011;11973;52.098;7.582;2023-12-20T12:08:24;11.70;;;3.22;;
23590;SDS011;11973;52.098;7.582;2023-12-20T12:10:50;6.65;;;2.72;;
23590;SDS011;11973;52.098;7.582;2023-12-20T12:13:16;7.70;;;3.38;;
23590;SDS011;11973;52.098;7.582;2023-12-20T12:15:42;11.27;;;3.05;;
23590;SDS011;11973;52.098;7.582;2023-12-20T12:18:09;5.82;;;2.58;;
23590;SDS011;11973;52.098;7.582;2023-12-20T12:20:36;7.35;;;2.88;;
23590;SDS011;11973;52.098;7.582;2023-12-20T12:23:02;12.30;;;2.90;;
23590;SDS011;11973;52.098;7.582;2023-12-20T12:25:32;9.82;;;3.00;;
23590;SDS011;11973;52.098;7.582;2023-12-20T12:28:00;12.05;;;3.10;;
23590;SDS011;11973;52.098;7.582;2023-12-20T12:30:26;4.78;;;1.75;;
23590;SDS011;11973;52.098;7.582;2023-12-20T12:32:53;1.67;;;0.50;;
23590;SDS011;11973;52.098;7.582;2023-12-20T12:35:19;0.95;;;0.40;;
23590;SDS011;11973;52.098;7.582;2023-12-20T12:37:46;4.05;;;0.30;;
23590;SDS011;11973;52.098;7.582;2023-12-20T12:40:12;1.90;;;0.30;;
23590;SDS011;11973;52.098;7.582;2023-12-20T12:42:40;1.05;;;0.40;;
23590;SDS011;11973;52.098;7.582;2023-12-20T12:45:07;0.77;;;0.20;;
23590;SDS011;11973;52.098;7.582;2023-12-20T12:47:34;0.30;;;0.30;;
23590;SDS011;11973;52.098;7.582;2023-12-20T12:50:00;0.30;;;0.30;;
23590;SDS011;11973;52.098;7.582;2023-12-20T12:52:26;0.70;;;0.40;;
23590;SDS011;11973;52.098;7.582;2023-12-20T12:54:52;0.32;;;0.32;;
23590;SDS011;11973;52.098;7.582;2023-12-20T12:57:18;0.40;;;0.40;;
23590;SDS011;11973;52.098;7.582;2023-12-20T12:59:45;0.75;;;0.40;;
23590;SDS011;11973;52.098;7.582;2023-12-20T13:02:20;1.02;;;0.40;;
23590;SDS011;11973;52.098;7.582;2023-12-20T13:04:47;1.55;;;0.52;;
23590;SDS011;11973;52.098;7.582;2023-12-20T13:07:13;0.40;;;0.40;;
23590;SDS011;11973;52.098;7.582;2023-12-20T13:09:39;0.50;;;0.50;;
23590;SDS011;11973;52.098;7.582;2023-12-20T13:12:06;1.95;;;0.50;;
23590;SDS011;11973;52.098;7.582;2023-12-20T13:14:33;0.60;;;0.60;;
23590;SDS011;11973;52.098;7.582;2023-12-20T13:17:00;1.98;;;0.60;;
23590;SDS011;11973;52.098;7.582;2023-12-20T13:19:26;3.05;;;0.70;;
23590;SDS011;11973;52.098;7.582;2023-12-20T13:21:52;2.85;;;0.63;;
23590;SDS011;11973;52.098;7.582;2023-12-20T13:24:18;0.82;;;0.60;;
23590;SDS011;11973;52.098;7.582;2023-12-20T13:26:44;2.63;;;0.95;;
23590;SDS011;11973;52.098;7.582;2023-12-20T13:29:10;3.17;;;0.95;;
23590;SDS011;11973;52.098;7.582;2023-12-20T13:31:37;2.15;;;0.90;;
23590;SDS011;11973;52.098;7.582;2023-12-20T13:34:05;2.20;;;0.90;;
23590;SDS011;11973;52.098;7.582;2023-12-20T13:36:32;3.97;;;1.25;;
23590;SDS011;11973;52.098;7.582;2023-12-20T13:38:57;3.03;;;1.15;;
23590;SDS011;11973;52.098;7.582;2023-12-20T13:41:23;2.70;;;1.00;;
23590;SDS011;11973;52.098;7.582;2023-12-20T13:43:50;2.55;;;0.95;;
23590;SDS011;11973;52.098;7.582;2023-12-20T13:46:18;4.38;;;1.50;;
23590;SDS011;11973;52.098;7.582;2023-12-20T13:48:43;4.22;;;1.48;;
23590;SDS011;11973;52.098;7.582;2023-12-20T13:51:10;1.77;;;1.10;;
23590;SDS011;11973;52.098;7.582;2023-12-20T13:53:36;2.85;;;1.20;;
23590;SDS011;11973;52.098;7.582;2023-12-20T13:56:06;2.22;;;1.00;;
23590;SDS011;11973;52.098;7.582;2023-12-20T13:58:32;2.80;;;1.23;;
23590;SDS011;11973;52.098;7.582;2023-12-20T14:00:58;5.10;;;1.50;;
23590;SDS011;11973;52.098;7.582;2023-12-20T14:03:24;3.33;;;1.30;;
23590;SDS011;11973;52.098;7.582;2023-12-20T14:05:49;2.83;;;1.27;;
23590;SDS011;11973;52.098;7.582;2023-12-20T14:08:15;3.55;;;1.58;;
23590;SDS011;11973;52.098;7.582;2023-12-20T14:10:41;4.47;;;1.35;;
23590;SDS011;11973;52.098;7.582;2023-12-20T14:13:07;2.80;;;1.20;;
23590;SDS011;11973;52.098;7.582;2023-12-20T14:15:33;5.13;;;1.60;;
23590;SDS011;11973;52.098;7.582;2023-12-20T14:18:05;2.88;;;1.42;;
23590;SDS011;11973;52.098;7.582;2023-12-20T14:20:32;3.45;;;1.20;;
23590;SDS011;11973;52.098;7.582;2023-12-20T14:23:00;5.18;;;1.45;;
23590;SDS011;11973;52.098;7.582;2023-12-20T14:25:26;2.88;;;1.50;;
23590;SDS011;11973;52.098;7.582;2023-12-20T14:27:52;1.75;;;1.15;;
23590;SDS011;11973;52.098;7.582;2023-12-20T14:30:18;1.52;;;1.40;;
23590;SDS011;11973;52.098;7.582;2023-12-20T14:32:44;4.07;;;1.65;;
23590;SDS011;11973;52.098;7.582;2023-12-20T14:35:11;3.13;;;1.90;;
23590;SDS011;11973;52.098;7.582;2023-12-20T14:37:37;2.53;;;1.70;;
23590;SDS011;11973;52.098;7.582;2023-12-20T14:40:06;5.50;;;2.35;;
23590;SDS011;11973;52.098;7.582;2023-12-20T14:42:36;5.10;;;2.47;;
23590;SDS011;11973;52.098;7.582;2023-12-20T14:45:02;8.55;;;3.75;;
23590;SDS011;11973;52.098;7.582;2023-12-20T14:47:28;11.25;;;3.65;;
23590;SDS011;11973;52.098;7.582;2023-12-20T14:49:54;11.93;;;5.18;;
23590;SDS011;11973;52.098;7.582;2023-12-20T14:52:19;13.48;;;5.20;;
23590;SDS011;11973;52.098;7.582;2023-12-20T14:54:45;14.45;;;5.30;;
23590;SDS011;11973;52.098;7.582;2023-12-20T14:57:11;15.10;;;5.70;;
23590;SDS011;11973;52.098;7.582;2023-12-20T14:59:37;15.88;;;5.90;;
23590;SDS011;11973;52.098;7.582;2023-12-20T15:02:03;20.15;;;5.82;;
23590;SDS011;11973;52.098;7.582;2023-12-20T15:04:30;16.65;;;4.95;;
23590;SDS011;11973;52.098;7.582;2023-12-20T15:06:56;14.38;;;6.10;;
23590;SDS011;11973;52.098;7.582;2023-12-20T15:09:26;15.85;;;5.63;;
23590;SDS011;11973;52.098;7.582;2023-12-20T15:11:56;12.82;;;4.95;;
23590;SDS011;11973;52.098;7.582;2023-12-20T15:14:25;13.50;;;4.80;;
23590;SDS011;11973;52.098;7.582;2023-12-20T15:16:54;13.20;;;5.28;;
23590;SDS011;11973;52.098;7.582;2023-12-20T15:19:21;13.40;;;5.00;;
23590;SDS011;11973;52.098;7.582;2023-12-20T15:21:47;12.52;;;4.20;;
23590;SDS011;11973;52.098;7.582;2023-12-20T15:24:13;10.77;;;4.90;;
23590;SDS011;11973;52.098;7.582;2023-12-20T15:26:43;13.93;;;5.68;;
23590;SDS011;11973;52.098;7.582;2023-12-20T15:29:10;8.45;;;5.10;;
23590;SDS011;11973;52.098;7.582;2023-12-20T15:31:46;11.55;;;5.30;;
23590;SDS011;11973;52.098;7.582;2023-12-20T15:34:14;13.23;;;5.00;;
23590;SDS011;11973;52.098;7.582;2023-12-20T15:36:43;12.05;;;5.13;;
23590;SDS011;11973;52.098;7.582;2023-12-20T15:39:14;10.85;;;5.68;;
23590;SDS011;11973;52.098;7.582;2023-12-20T15:41:40;14.95;;;5.40;;
23590;SDS011;11973;52.098;7.582;2023-12-20T15:44:05;14.50;;;5.70;;
23590;SDS011;11973;52.098;7.582;2023-12-20T15:46:36;11.80;;;5.18;;
23590;SDS011;11973;52.098;7.582;2023-12-20T15:49:03;17.45;;;5.30;;
23590;SDS011;11973;52.098;7.582;2023-12-20T15:51:29;13.40;;;5.65;;
23590;SDS011;11973;52.098;7.582;2023-12-20T15:53:55;16.33;;;6.05;;
23590;SDS011;11973;52.098;7.582;2023-12-20T15:56:22;17.83;;;5.85;;
23590;SDS011;11973;52.098;7.582;2023-12-20T15:58:48;15.52;;;5.68;;
23590;SDS011;11973;52.098;7.582;2023-12-20T16:01:14;11.90;;;6.32;;
23590;SDS011;11973;52.098;7.582;2023-12-20T16:03:41;13.25;;;6.38;;
23590;SDS011;11973;52.098;7.582;2023-12-20T16:06:08;21.25;;;6.25;;
23590;SDS011;11973;52.098;7.582;2023-12-20T16:08:35;15.80;;;6.35;;
23590;SDS011;11973;52.098;7.582;2023-12-20T16:11:01;14.02;;;6.63;;
23590;SDS011;11973;52.098;7.582;2023-12-20T16:13:26;13.93;;;6.10;;
23590;SDS011;11973;52.098;7.582;2023-12-20T16:15:52;16.05;;;6.68;;
23590;SDS011;11973;52.098;7.582;2023-12-20T16:31:09;14.63;;;6.15;;
23590;SDS011;11973;52.098;7.582;2023-12-20T16:36:48;17.02;;;6.53;;
23590;SDS011;11973;52.098;7.582;2023-12-20T16:39:22;16.10;;;6.53;;
23590;SDS011;11973;52.098;7.582;2023-12-20T16:41:48;13.30;;;6.25;;
23590;SDS011;11973;52.098;7.582;2023-12-20T16:44:14;14.55;;;6.43;;
23590;SDS011;11973;52.098;7.582;2023-12-20T16:46:40;14.45;;;5.88;;
23590;SDS011;11973;52.098;7.582;2023-12-20T16:49:06;12.88;;;6.65;;
23590;SDS011;11973;52.098;7.582;2023-12-20T16:51:33;13.45;;;6.25;;
23590;SDS011;11973;52.098;7.582;2023-12-20T16:53:59;19.27;;;6.80;;
23590;SDS011;11973;52.098;7.582;2023-12-20T16:56:25;15.85;;;6.88;;
23590;SDS011;11973;52.098;7.582;2023-12-20T16:58:51;12.90;;;6.63;;
23590;SDS011;11973;52.098;7.582;2023-12-20T17:01:17;16.67;;;6.80;;
23590;SDS011;11973;52.098;7.582;2023-12-20T17:03:43;14.35;;;7.03;;
23590;SDS011;11973;52.098;7.582;2023-12-20T17:06:09;14.45;;;7.35;;
23590;SDS011;11973;52.098;7.582;2023-12-20T17:08:35;17.50;;;7.88;;
23590;SDS011;11973;52.098;7.582;2023-12-20T17:11:01;25.30;;;9.30;;
23590;SDS011;11973;52.098;7.582;2023-12-20T17:13:27;17.42;;;8.88;;
23590;SDS011;11973;52.098;7.582;2023-12-20T17:15:52;21.15;;;8.50;;
23590;SDS011;11973;52.098;7.582;2023-12-20T17:18:18;14.60;;;8.73;;
23590;SDS011;11973;52.098;7.582;2023-12-20T17:20:44;17.60;;;9.20;;
23590;SDS011;11973;52.098;7.582;2023-12-20T17:26:58;20.40;;;11.10;;
23590;SDS011;11973;52.098;7.582;2023-12-20T17:29:24;17.85;;;10.88;;
23590;SDS011;11973;52.098;7.582;2023-12-20T17:31:50;21.30;;;11.07;;
23590;SDS011;11973;52.098;7.582;2023-12-20T17:34:15;19.42;;;10.70;;
23590;SDS011;11973;52.098;7.582;2023-12-20T17:36:41;26.98;;;11.90;;
23590;SDS011;11973;52.098;7.582;2023-12-20T17:39:07;21.27;;;11.43;;
23590;SDS011;11973;52.098;7.582;2023-12-20T17:41:33;23.52;;;12.77;;
23590;SDS011;11973;52.098;7.582;2023-12-20T17:44:00;23.45;;;11.88;;
23590;SDS011;11973;52.098;7.582;2023-12-20T17:46:27;21.40;;;11.52;;
23590;SDS011;11973;52.098;7.582;2023-12-20T17:48:53;20.90;;;11.43;;
23590;SDS011;11973;52.098;7.582;2023-12-20T17:51:18;17.20;;;10.82;;
23590;SDS011;11973;52.098;7.582;2023-12-20T17:53:44;20.30;;;11.05;;
23590;SDS011;11973;52.098;7.582;2023-12-20T17:56:10;23.20;;;11.18;;
23590;SDS011;11973;52.098;7.582;2023-12-20T17:58:36;17.00;;;10.55;;
23590;SDS011;11973;52.098;7.582;2023-12-20T18:01:02;16.73;;;11.05;;
23590;SDS011;11973;52.098;7.582;2023-12-20T18:03:28;16.58;;;10.18;;
23590;SDS011;11973;52.098;7.582;2023-12-20T18:05:54;17.25;;;10.88;;
23590;SDS011;11973;52.098;7.582;2023-12-20T18:08:20;21.25;;;11.00;;
23590;SDS011;11973;52.098;7.582;2023-12-20T18:10:46;16.75;;;10.75;;
23590;SDS011;11973;52.098;7.582;2023-12-20T18:13:11;20.02;;;11.40;;
23590;SDS011;11973;52.098;7.582;2023-12-20T18:15:37;19.77;;;11.23;;
23590;SDS011;11973;52.098;7.582;2023-12-20T18:18:03;14.70;;;10.02;;
23590;SDS011;11973;52.098;7.582;2023-12-20T18:20:29;16.98;;;11.35;;
23590;SDS011;11973;52.098;7.582;2023-12-20T18:22:55;18.17;;;11.48;;
23590;SDS011;11973;52.098;7.582;2023-12-20T18:25:20;13.15;;;11.05;;
23590;SDS011;11973;52.098;7.582;2023-12-20T18:27:46;18.48;;;10.88;;
23590;SDS011;11973;52.098;7.582;2023-12-20T18:30:12;21.38;;;11.80;;
23590;SDS011;11973;52.098;7.582;2023-12-20T18:32:37;21.17;;;12.10;;
23590;SDS011;11973;52.098;7.582;2023-12-20T18:35:03;20.25;;;13.38;;
23590;SDS011;11973;52.098;7.582;2023-12-20T18:37:29;17.92;;;12.93;;
23590;SDS011;11973;52.098;7.582;2023-12-20T18:39:55;18.60;;;12.93;;
23590;SDS011;11973;52.098;7.582;2023-12-20T18:42:21;19.88;;;13.35;;
23590;SDS011;11973;52.098;7.582;2023-12-20T18:44:47;20.58;;;13.05;;
23590;SDS011;11973;52.098;7.582;2023-12-20T18:47:13;19.83;;;13.23;;
23590;SDS011;11973;52.098;7.582;2023-12-20T18:49:39;23.83;;;13.48;;
23590;SDS011;11973;52.098;7.582;2023-12-20T18:52:05;19.98;;;13.57;;
23590;SDS011;11973;52.098;7.582;2023-12-20T18:54:31;21.58;;;13.27;;
23590;SDS011;11973;52.098;7.582;2023-12-20T18:56:57;23.63;;;13.43;;
23590;SDS011;11973;52.098;7.582;2023-12-20T18:59:23;17.55;;;13.43;;
23590;SDS011;11973;52.098;7.582;2023-12-20T19:01:49;19.15;;;13.13;;
23590;SDS011;11973;52.098;7.582;2023-12-20T19:04:15;23.63;;;13.68;;
23590;SDS011;11973;52.098;7.582;2023-12-20T19:06:41;17.05;;;12.75;;
23590;SDS011;11973;52.098;7.582;2023-12-20T19:09:07;21.20;;;12.93;;
23590;SDS011;11973;52.098;7.582;2023-12-20T19:11:33;18.63;;;12.05;;
23590;SDS011;11973;52.098;7.582;2023-12-20T19:14:00;15.20;;;12.32;;
23590;SDS011;11973;52.098;7.582;2023-12-20T19:16:27;13.25;;;11.93;;
23590;SDS011;11973;52.098;7.582;2023-12-20T19:18:53;13.40;;;11.35;;
23590;SDS011;11973;52.098;7.582;2023-12-20T19:21:19;14.02;;;11.48;;
23590;SDS011;11973;52.098;7.582;2023-12-20T19:23:46;13.98;;;11.40;;
23590;SDS011;11973;52.098;7.582;2023-12-20T19:26:12;13.18;;;11.80;;
23590;SDS011;11973;52.098;7.582;2023-12-20T19:28:38;13.90;;;11.25;;
23590;SDS011;11973;52.098;7.582;2023-12-20T19:31:05;12.00;;;10.63;;
23590;SDS011;11973;52.098;7.582;2023-12-20T19:33:35;12.20;;;10.77;;
23590;SDS011;11973;52.098;7.582;2023-12-20T19:36:02;12.07;;;10.95;;
23590;SDS011;11973;52.098;7.582;2023-12-20T19:38:28;14.05;;;10.65;;
23590;SDS011;11973;52.098;7.582;2023-12-20T19:40:54;11.32;;;10.18;;
23590;SDS011;11973;52.098;7.582;2023-12-20T19:43:19;11.18;;;10.05;;
23590;SDS011;11973;52.098;7.582;2023-12-20T19:45:45;10.73;;;9.93;;